sensor_id;sensor_type;location;lat;lon;timestamp;P1;durP1;ratioP1;P2;durP2;ratioP2
84966;SDS011;75275;51.348;12.358;2024-03-23T00:54:08;22.70;;;12.48;;
84966;SDS011;75275;51.348;12.358;2024-03-23T00:56:34;21.75;;;12.25;;
84966;SDS011;75275;51.348;12.358;2024-03-23T00:59:01;23.00;;;12.57;;
84966;SDS011;75275;51.348;12.358;2024-03-23T01:01:26;22.40;;;12.85;;
84966;SDS011;75275;51.348;12.358;2024-03-23T01:03:53;19.30;;;11.90;;
84966;SDS011;75275;51.348;12.358;2024-03-23T01:06:19;20.15;;;11.38;;
84966;SDS011;75275;51.348;12.358;2024-03-23T01:08:46;19.15;;;12.20;;
84966;SDS011;75275;51.348;12.358;2024-03-23T01:11:13;21.20;;;12.57;;
84966;SDS011;75275;51.348;12.358;2024-03-23T01:13:40;18.45;;;11.00;;
84966;SDS011;75275;51.348;12.358;2024-03-23T01:16:06;21.20;;;12.25;;
84966;SDS011;75275;51.348;12.358;2024-03-23T01:18:33;17.95;;;11.48;;
84966;SDS011;75275;51.348;12.358;2024-03-23T01:20:59;17.10;;;10.38;;
84966;SDS011;75275;51.348;12.358;2024-03-23T01:23:25;16.60;;;9.57;;
84966;SDS011;75275;51.348;12.358;2024-03-23T01:25:51;14.88;;;8.88;;
84966;SDS011;75275;51.348;12.358;2024-03-23T01:28:21;14.43;;;8.65;;
84966;SDS011;75275;51.348;12.358;2024-03-23T01:30:47;12.98;;;7.70;;
84966;SDS011;75275;51.348;12.358;2024-03-23T01:33:15;11.68;;;6.65;;
84966;SDS011;75275;51.348;12.358;2024-03-23T01:35:41;14.57;;;7.88;;
84966;SDS011;75275;51.348;12.358;2024-03-23T01:38:07;10.95;;;6.38;;
84966;SDS011;75275;51.348;12.358;2024-03-23T01:40:33;10.77;;;6.65;;
84966;SDS011;75275;51.348;12.358;2024-03-23T01:43:03;9.85;;;5.65;;
84966;SDS011;75275;51.348;12.358;2024-03-23T01:45:31;9.70;;;5.88;;
84966;SDS011;75275;51.348;12.358;2024-03-23T01:48:00;8.60;;;5.18;;
84966;SDS011;75275;51.348;12.358;2024-03-23T01:50:27;9.27;;;5.30;;
84966;SDS011;75275;51.348;12.358;2024-03-23T01:52:58;11.93;;;5.72;;
84966;SDS011;75275;51.348;12.358;2024-03-23T01:55:25;13.55;;;7.72;;
84966;SDS011;75275;51.348;12.358;2024-03-23T01:57:52;11.68;;;6.15;;
84966;SDS011;75275;51.348;12.358;2024-03-23T02:00:18;12.05;;;6.75;;
84966;SDS011;75275;51.348;12.358;2024-03-23T02:02:46;12.43;;;6.57;;
84966;SDS011;75275;51.348;12.358;2024-03-23T02:05:13;12.80;;;7.10;;
84966;SDS011;75275;51.348;12.358;2024-03-23T02:07:40;11.48;;;6.82;;
84966;SDS011;75275;51.348;12.358;2024-03-23T02:10:08;14.52;;;7.20;;
84966;SDS011;75275;51.348;12.358;2024-03-23T02:12:40;12.48;;;6.78;;
84966;SDS011;75275;51.348;12.358;2024-03-23T02:15:06;14.48;;;7.40;;
84966;SDS011;75275;51.348;12.358;2024-03-23T02:17:34;11.60;;;6.03;;
84966;SDS011;75275;51.348;12.358;2024-03-23T02:20:02;12.73;;;6.70;;
84966;SDS011;75275;51.348;12.358;2024-03-23T02:22:35;11.38;;;6.05;;
84966;SDS011;75275;51.348;12.358;2024-03-23T02:25:03;11.25;;;5.47;;
84966;SDS011;75275;51.348;12.358;2024-03-23T02:27:31;15.15;;;5.70;;
84966;SDS011;75275;51.348;12.358;2024-03-23T02:29:57;9.80;;;5.05;;
84966;SDS011;75275;51.348;12.358;2024-03-23T02:32:26;10.05;;;5.55;;
84966;SDS011;75275;51.348;12.358;2024-03-23T02:34:52;12.07;;;5.38;;
84966;SDS011;75275;51.348;12.358;2024-03-23T02:37:22;9.38;;;4.85;;
84966;SDS011;75275;51.348;12.358;2024-03-23T02:39:47;10.57;;;4.68;;
84966;SDS011;75275;51.348;12.358;2024-03-23T02:42:16;9.73;;;5.03;;
84966;SDS011;75275;51.348;12.358;2024-03-23T02:44:42;9.70;;;4.63;;
84966;SDS011;75275;51.348;12.358;2024-03-23T02:47:09;10.60;;;4.75;;
84966;SDS011;75275;51.348;12.358;2024-03-23T02:49:35;10.55;;;4.95;;
84966;SDS011;75275;51.348;12.358;2024-03-23T02:52:02;13.32;;;5.35;;
84966;SDS011;75275;51.348;12.358;2024-03-23T02:54:28;9.00;;;4.60;;
84966;SDS011;75275;51.348;12.358;2024-03-23T02:56:55;10.68;;;5.22;;
84966;SDS011;75275;51.348;12.358;2024-03-23T02:59:22;11.68;;;4.75;;
84966;SDS011;75275;51.348;12.358;2024-03-23T03:01:49;9.95;;;4.93;;
84966;SDS011;75275;51.348;12.358;2024-03-23T03:04:15;8.77;;;4.10;;
84966;SDS011;75275;51.348;12.358;2024-03-23T03:06:43;7.75;;;3.53;;
84966;SDS011;75275;51.348;12.358;2024-03-23T03:09:11;10.65;;;4.72;;
84966;SDS011;75275;51.348;12.358;2024-03-23T03:11:38;7.50;;;3.33;;
84966;SDS011;75275;51.348;12.358;2024-03-23T03:14:04;7.28;;;3.25;;
84966;SDS011;75275;51.348;12.358;2024-03-23T03:16:35;8.10;;;3.50;;
84966;SDS011;75275;51.348;12.358;2024-03-23T03:19:01;8.45;;;3.88;;
84966;SDS011;75275;51.348;12.358;2024-03-23T03:21:28;8.98;;;3.28;;
84966;SDS011;75275;51.348;12.358;2024-03-23T03:23:53;7.53;;;3.00;;
84966;SDS011;75275;51.348;12.358;2024-03-23T03:26:21;5.45;;;3.00;;
84966;SDS011;75275;51.348;12.358;2024-03-23T03:28:47;8.65;;;3.42;;
84966;SDS011;75275;51.348;12.358;2024-03-23T03:31:15;7.38;;;3.60;;
84966;SDS011;75275;51.348;12.358;2024-03-23T03:33:42;6.82;;;3.50;;
84966;SDS011;75275;51.348;12.358;2024-03-23T03:36:10;6.85;;;2.97;;
84966;SDS011;75275;51.348;12.358;2024-03-23T03:38:36;6.65;;;2.67;;
84966;SDS011;75275;51.348;12.358;2024-03-23T03:41:03;7.78;;;3.08;;
84966;SDS011;75275;51.348;12.358;2024-03-23T03:43:29;7.13;;;3.47;;
84966;SDS011;75275;51.348;12.358;2024-03-23T03:45:57;7.65;;;3.30;;
84966;SDS011;75275;51.348;12.358;2024-03-23T03:48:24;5.15;;;2.47;;
84966;SDS011;75275;51.348;12.358;2024-03-23T03:50:52;5.32;;;2.83;;
84966;SDS011;75275;51.348;12.358;2024-03-23T03:53:18;6.10;;;2.88;;
84966;SDS011;75275;51.348;12.358;2024-03-23T03:55:46;7.03;;;3.00;;
84966;SDS011;75275;51.348;12.358;2024-03-23T03:58:12;5.35;;;2.90;;
84966;SDS011;75275;51.348;12.358;2024-03-23T04:00:39;7.65;;;3.20;;
84966;SDS011;75275;51.348;12.358;2024-03-23T04:03:05;5.72;;;2.88;;
84966;SDS011;75275;51.348;12.358;2024-03-23T04:05:32;8.18;;;2.58;;
84966;SDS011;75275;51.348;12.358;2024-03-23T04:08:00;4.93;;;2.17;;
84966;SDS011;75275;51.348;12.358;2024-03-23T04:10:27;6.88;;;2.97;;
84966;SDS011;75275;51.348;12.358;2024-03-23T04:12:53;5.95;;;2.60;;
84966;SDS011;75275;51.348;12.358;2024-03-23T04:15:20;6.38;;;2.67;;
84966;SDS011;75275;51.348;12.358;2024-03-23T04:17:46;8.65;;;3.15;;
84966;SDS011;75275;51.348;12.358;2024-03-23T04:20:13;5.10;;;2.50;;
84966;SDS011;75275;51.348;12.358;2024-03-23T04:22:42;8.55;;;2.72;;
84966;SDS011;75275;51.348;12.358;2024-03-23T04:25:10;5.55;;;2.80;;
84966;SDS011;75275;51.348;12.358;2024-03-23T04:27:36;5.57;;;2.30;;
84966;SDS011;75275;51.348;12.358;2024-03-23T04:30:04;7.22;;;2.45;;
84966;SDS011;75275;51.348;12.358;2024-03-23T04:32:35;7.00;;;2.60;;
84966;SDS011;75275;51.348;12.358;2024-03-23T04:35:02;5.28;;;2.40;;
84966;SDS011;75275;51.348;12.358;2024-03-23T04:37:31;6.47;;;2.60;;
84966;SDS011;75275;51.348;12.358;2024-03-23T04:39:58;6.72;;;2.88;;
84966;SDS011;75275;51.348;12.358;2024-03-23T04:42:26;5.93;;;2.65;;
84966;SDS011;75275;51.348;12.358;2024-03-23T04:44:54;6.35;;;2.55;;
84966;SDS011;75275;51.348;12.358;2024-03-23T04:47:21;8.02;;;2.60;;
84966;SDS011;75275;51.348;12.358;2024-03-23T04:49:47;7.45;;;2.60;;
84966;SDS011;75275;51.348;12.358;2024-03-23T04:52:15;6.00;;;2.78;;
84966;SDS011;75275;51.348;12.358;2024-03-23T04:54:42;6.80;;;3.13;;
84966;SDS011;75275;51.348;12.358;2024-03-23T04:57:10;6.53;;;2.90;;
84966;SDS011;75275;51.348;12.358;2024-03-23T04:59:37;6.15;;;2.70;;
84966;SDS011;75275;51.348;12.358;2024-03-23T05:02:04;7.05;;;2.50;;
84966;SDS011;75275;51.348;12.358;2024-03-23T05:04:33;7.82;;;3.10;;
84966;SDS011;75275;51.348;12.358;2024-03-23T05:07:00;5.57;;;2.05;;
84966;SDS011;75275;51.348;12.358;2024-03-23T05:09:25;8.18;;;2.80;;
84966;SDS011;75275;51.348;12.358;2024-03-23T05:11:55;5.60;;;2.70;;
84966;SDS011;75275;51.348;12.358;2024-03-23T05:14:20;8.80;;;3.35;;
84966;SDS011;75275;51.348;12.358;2024-03-23T05:16:49;8.85;;;2.75;;
84966;SDS011;75275;51.348;12.358;2024-03-23T05:19:15;7.38;;;2.50;;
84966;SDS011;75275;51.348;12.358;2024-03-23T05:21:42;8.13;;;3.20;;
84966;SDS011;75275;51.348;12.358;2024-03-23T05:24:08;7.30;;;2.60;;
84966;SDS011;75275;51.348;12.358;2024-03-23T05:26:35;8.18;;;3.60;;
84966;SDS011;75275;51.348;12.358;2024-03-23T05:29:01;5.25;;;2.70;;
84966;SDS011;75275;51.348;12.358;2024-03-23T05:31:37;8.05;;;3.10;;
84966;SDS011;75275;51.348;12.358;2024-03-23T05:34:04;8.50;;;3.03;;
84966;SDS011;75275;51.348;12.358;2024-03-23T05:36:31;7.95;;;3.47;;
84966;SDS011;75275;51.348;12.358;2024-03-23T05:38:57;5.65;;;3.25;;
84966;SDS011;75275;51.348;12.358;2024-03-23T05:41:24;7.72;;;2.88;;
84966;SDS011;75275;51.348;12.358;2024-03-23T05:43:50;7.22;;;3.58;;
84966;SDS011;75275;51.348;12.358;2024-03-23T05:46:19;6.00;;;3.08;;
84966;SDS011;75275;51.348;12.358;2024-03-23T05:48:44;7.03;;;2.78;;
84966;SDS011;75275;51.348;12.358;2024-03-23T05:51:13;6.47;;;2.95;;
84966;SDS011;75275;51.348;12.358;2024-03-23T05:53:39;9.05;;;3.33;;
84966;SDS011;75275;51.348;12.358;2024-03-23T05:56:06;8.25;;;3.15;;
84966;SDS011;75275;51.348;12.358;2024-03-23T05:58:32;5.47;;;3.15;;
84966;SDS011;75275;51.348;12.358;2024-03-23T06:00:59;7.80;;;3.33;;
84966;SDS011;75275;51.348;12.358;2024-03-23T06:03:26;9.95;;;3.10;;
84966;SDS011;75275;51.348;12.358;2024-03-23T06:05:53;7.40;;;3.22;;
84966;SDS011;75275;51.348;12.358;2024-03-23T06:08:21;7.57;;;3.80;;
84966;SDS011;75275;51.348;12.358;2024-03-23T06:10:49;8.48;;;3.58;;
84966;SDS011;75275;51.348;12.358;2024-03-23T06:13:15;8.55;;;3.10;;
84966;SDS011;75275;51.348;12.358;2024-03-23T06:15:42;8.93;;;3.92;;
84966;SDS011;75275;51.348;12.358;2024-03-23T06:18:08;6.72;;;3.78;;
84966;SDS011;75275;51.348;12.358;2024-03-23T06:20:35;9.35;;;3.08;;
84966;SDS011;75275;51.348;12.358;2024-03-23T06:23:01;9.27;;;3.78;;
84966;SDS011;75275;51.348;12.358;2024-03-23T06:25:30;7.78;;;3.55;;
84966;SDS011;75275;51.348;12.358;2024-03-23T06:27:55;8.63;;;3.65;;
84966;SDS011;75275;51.348;12.358;2024-03-23T06:30:23;7.80;;;3.55;;
84966;SDS011;75275;51.348;12.358;2024-03-23T06:32:49;5.80;;;3.28;;
84966;SDS011;75275;51.348;12.358;2024-03-23T06:35:16;9.70;;;3.80;;
84966;SDS011;75275;51.348;12.358;2024-03-23T06:37:42;8.90;;;3.95;;
84966;SDS011;75275;51.348;12.358;2024-03-23T06:40:10;8.38;;;4.05;;
84966;SDS011;75275;51.348;12.358;2024-03-23T06:42:38;11.27;;;4.35;;
84966;SDS011;75275;51.348;12.358;2024-03-23T06:45:05;8.45;;;3.95;;
84966;SDS011;75275;51.348;12.358;2024-03-23T06:47:31;8.15;;;4.00;;
84966;SDS011;75275;51.348;12.358;2024-03-23T06:49:59;8.38;;;3.75;;
84966;SDS011;75275;51.348;12.358;2024-03-23T06:52:27;8.00;;;4.05;;
84966;SDS011;75275;51.348;12.358;2024-03-23T06:54:54;9.23;;;4.00;;
84966;SDS011;75275;51.348;12.358;2024-03-23T06:57:21;9.95;;;4.47;;
84966;SDS011;75275;51.348;12.358;2024-03-23T06:59:48;10.25;;;4.55;;
84966;SDS011;75275;51.348;12.358;2024-03-23T07:02:15;14.02;;;4.60;;
84966;SDS011;75275;51.348;12.358;2024-03-23T07:04:41;9.43;;;4.45;;
84966;SDS011;75275;51.348;12.358;2024-03-23T07:07:08;8.82;;;4.32;;
84966;SDS011;75275;51.348;12.358;2024-03-23T07:09:34;7.53;;;3.75;;
84966;SDS011;75275;51.348;12.358;2024-03-23T07:12:04;8.45;;;3.75;;
84966;SDS011;75275;51.348;12.358;2024-03-23T07:14:30;6.70;;;3.80;;
84966;SDS011;75275;51.348;12.358;2024-03-23T07:16:59;8.85;;;3.78;;
84966;SDS011;75275;51.348;12.358;2024-03-23T07:19:25;11.05;;;4.38;;
84966;SDS011;75275;51.348;12.358;2024-03-23T07:21:52;9.52;;;4.10;;
84966;SDS011;75275;51.348;12.358;2024-03-23T07:24:18;9.23;;;4.72;;
84966;SDS011;75275;51.348;12.358;2024-03-23T07:26:45;9.65;;;3.78;;
84966;SDS011;75275;51.348;12.358;2024-03-23T07:29:11;5.85;;;3.47;;
84966;SDS011;75275;51.348;12.358;2024-03-23T07:31:38;8.80;;;4.00;;
84966;SDS011;75275;51.348;12.358;2024-03-23T07:34:06;9.52;;;3.33;;
84966;SDS011;75275;51.348;12.358;2024-03-23T07:36:33;7.70;;;3.08;;
84966;SDS011;75275;51.348;12.358;2024-03-23T07:38:58;6.22;;;2.75;;
84966;SDS011;75275;51.348;12.358;2024-03-23T07:41:25;6.55;;;2.38;;
84966;SDS011;75275;51.348;12.358;2024-03-23T07:43:53;5.57;;;2.40;;
84966;SDS011;75275;51.348;12.358;2024-03-23T07:46:23;6.13;;;3.08;;
84966;SDS011;75275;51.348;12.358;2024-03-23T07:48:50;6.63;;;3.20;;
84966;SDS011;75275;51.348;12.358;2024-03-23T07:51:19;6.82;;;3.00;;
84966;SDS011;75275;51.348;12.358;2024-03-23T07:53:46;5.15;;;1.52;;
84966;SDS011;75275;51.348;12.358;2024-03-23T07:56:17;3.05;;;1.25;;
84966;SDS011;75275;51.348;12.358;2024-03-23T07:58:44;2.58;;;1.10;;
84966;SDS011;75275;51.348;12.358;2024-03-23T08:01:11;2.78;;;1.00;;
84966;SDS011;75275;51.348;12.358;2024-03-23T08:03:40;4.13;;;1.23;;
84966;SDS011;75275;51.348;12.358;2024-03-23T08:06:08;2.20;;;1.00;;
84966;SDS011;75275;51.348;12.358;2024-03-23T08:11:03;3.72;;;1.08;;
84966;SDS011;75275;51.348;12.358;2024-03-23T08:13:30;5.20;;;1.20;;
84966;SDS011;75275;51.348;12.358;2024-03-23T08:15:57;1.83;;;0.85;;
84966;SDS011;75275;51.348;12.358;2024-03-23T08:18:23;3.70;;;1.17;;
84966;SDS011;75275;51.348;12.358;2024-03-23T08:20:56;4.10;;;1.20;;
84966;SDS011;75275;51.348;12.358;2024-03-23T08:23:23;6.00;;;1.55;;
84966;SDS011;75275;51.348;12.358;2024-03-23T08:25:51;2.97;;;1.30;;
84966;SDS011;75275;51.348;12.358;2024-03-23T08:28:17;3.22;;;0.80;;
84966;SDS011;75275;51.348;12.358;2024-03-23T08:30:44;2.28;;;0.93;;
84966;SDS011;75275;51.348;12.358;2024-03-23T08:33:12;5.50;;;1.08;;
84966;SDS011;75275;51.348;12.358;2024-03-23T08:35:39;2.40;;;1.02;;
84966;SDS011;75275;51.348;12.358;2024-03-23T08:38:05;2.38;;;1.05;;
84966;SDS011;75275;51.348;12.358;2024-03-23T08:42:59;3.95;;;0.90;;
84966;SDS011;75275;51.348;12.358;2024-03-23T08:45:28;2.75;;;1.20;;
84966;SDS011;75275;51.348;12.358;2024-03-23T08:47:54;2.75;;;1.08;;
84966;SDS011;75275;51.348;12.358;2024-03-23T08:50:21;2.83;;;1.10;;
84966;SDS011;75275;51.348;12.358;2024-03-23T08:52:47;2.22;;;0.93;;
84966;SDS011;75275;51.348;12.358;2024-03-23T08:55:14;3.70;;;1.10;;
84966;SDS011;75275;51.348;12.358;2024-03-23T08:57:39;2.63;;;0.90;;
84966;SDS011;75275;51.348;12.358;2024-03-23T09:00:09;3.72;;;1.00;;
84966;SDS011;75275;51.348;12.358;2024-03-23T09:02:36;4.68;;;0.90;;
84966;SDS011;75275;51.348;12.358;2024-03-23T09:09:56;3.42;;;1.08;;
84966;SDS011;75275;51.348;12.358;2024-03-23T09:12:22;2.72;;;1.13;;
84966;SDS011;75275;51.348;12.358;2024-03-23T09:14:49;2.38;;;1.17;;
84966;SDS011;75275;51.348;12.358;2024-03-23T09:17:16;3.17;;;1.10;;
84966;SDS011;75275;51.348;12.358;2024-03-23T09:19:44;3.88;;;1.20;;
84966;SDS011;75275;51.348;12.358;2024-03-23T09:22:10;2.60;;;0.90;;
84966;SDS011;75275;51.348;12.358;2024-03-23T09:24:38;4.00;;;1.23;;
84966;SDS011;75275;51.348;12.358;2024-03-23T09:27:04;1.90;;;0.88;;
84966;SDS011;75275;51.348;12.358;2024-03-23T09:29:31;4.07;;;1.00;;
84966;SDS011;75275;51.348;12.358;2024-03-23T09:31:57;3.45;;;1.00;;
84966;SDS011;75275;51.348;12.358;2024-03-23T09:36:51;2.45;;;0.80;;
84966;SDS011;75275;51.348;12.358;2024-03-23T09:39:18;3.00;;;0.88;;
84966;SDS011;75275;51.348;12.358;2024-03-23T09:41:44;2.85;;;1.08;;
84966;SDS011;75275;51.348;12.358;2024-03-23T09:44:12;2.72;;;1.20;;
84966;SDS011;75275;51.348;12.358;2024-03-23T09:46:38;3.20;;;1.00;;
84966;SDS011;75275;51.348;12.358;2024-03-23T09:49:06;2.55;;;1.25;;
84966;SDS011;75275;51.348;12.358;2024-03-23T09:51:38;2.88;;;1.10;;
84966;SDS011;75275;51.348;12.358;2024-03-23T09:54:06;2.47;;;1.25;;
84966;SDS011;75275;51.348;12.358;2024-03-23T09:56:34;2.47;;;1.42;;
84966;SDS011;75275;51.348;12.358;2024-03-23T09:59:03;2.22;;;1.00;;
84966;SDS011;75275;51.348;12.358;2024-03-23T10:01:29;3.13;;;1.30;;
84966;SDS011;75275;51.348;12.358;2024-03-23T10:03:56;1.90;;;0.93;;
84966;SDS011;75275;51.348;12.358;2024-03-23T10:06:22;3.42;;;0.80;;
84966;SDS011;75275;51.348;12.358;2024-03-23T10:08:54;2.65;;;0.93;;
84966;SDS011;75275;51.348;12.358;2024-03-23T10:11:20;2.47;;;0.90;;
84966;SDS011;75275;51.348;12.358;2024-03-23T10:14:04;2.55;;;0.65;;
84966;SDS011;75275;51.348;12.358;2024-03-23T10:16:30;2.13;;;0.88;;
84966;SDS011;75275;51.348;12.358;2024-03-23T10:18:57;2.20;;;0.80;;
84966;SDS011;75275;51.348;12.358;2024-03-23T10:21:23;1.73;;;0.50;;
84966;SDS011;75275;51.348;12.358;2024-03-23T10:28:53;1.90;;;0.63;;
84966;SDS011;75275;51.348;12.358;2024-03-23T10:33:46;2.03;;;1.00;;
84966;SDS011;75275;51.348;12.358;2024-03-23T10:36:13;2.42;;;1.50;;
84966;SDS011;75275;51.348;12.358;2024-03-23T10:38:40;3.55;;;1.73;;
84966;SDS011;75275;51.348;12.358;2024-03-23T10:41:07;4.20;;;2.60;;
84966;SDS011;75275;51.348;12.358;2024-03-23T10:43:37;3.55;;;2.38;;
84966;SDS011;75275;51.348;12.358;2024-03-23T10:46:04;4.60;;;2.90;;
84966;SDS011;75275;51.348;12.358;2024-03-23T10:48:34;4.22;;;2.72;;
84966;SDS011;75275;51.348;12.358;2024-03-23T10:51:00;3.78;;;2.33;;
84966;SDS011;75275;51.348;12.358;2024-03-23T10:53:28;2.92;;;2.22;;
84966;SDS011;75275;51.348;12.358;2024-03-23T10:55:54;3.30;;;2.22;;
84966;SDS011;75275;51.348;12.358;2024-03-23T10:58:26;3.58;;;2.30;;
84966;SDS011;75275;51.348;12.358;2024-03-23T11:00:57;3.88;;;2.03;;
84966;SDS011;75275;51.348;12.358;2024-03-23T11:03:31;2.85;;;1.98;;
84966;SDS011;75275;51.348;12.358;2024-03-23T11:05:58;3.00;;;2.00;;
84966;SDS011;75275;51.348;12.358;2024-03-23T11:08:32;3.10;;;1.98;;
84966;SDS011;75275;51.348;12.358;2024-03-23T11:11:11;2.70;;;1.83;;
84966;SDS011;75275;51.348;12.358;2024-03-23T11:13:39;3.05;;;1.83;;
84966;SDS011;75275;51.348;12.358;2024-03-23T11:16:14;3.28;;;1.65;;
84966;SDS011;75275;51.348;12.358;2024-03-23T11:18:42;3.45;;;1.45;;
84966;SDS011;75275;51.348;12.358;2024-03-23T11:21:09;2.60;;;1.50;;
84966;SDS011;75275;51.348;12.358;2024-03-23T11:23:36;5.50;;;1.88;;
84966;SDS011;75275;51.348;12.358;2024-03-23T11:26:02;3.25;;;1.40;;
84966;SDS011;75275;51.348;12.358;2024-03-23T11:28:29;2.85;;;1.50;;
84966;SDS011;75275;51.348;12.358;2024-03-23T11:30:55;3.65;;;1.58;;
84966;SDS011;75275;51.348;12.358;2024-03-23T11:33:25;3.25;;;1.50;;
84966;SDS011;75275;51.348;12.358;2024-03-23T11:35:51;3.85;;;1.40;;
84966;SDS011;75275;51.348;12.358;2024-03-23T11:38:18;5.35;;;1.70;;
84966;SDS011;75275;51.348;12.358;2024-03-23T11:40:45;3.35;;;1.23;;
84966;SDS011;75275;51.348;12.358;2024-03-23T11:43:13;6.43;;;1.92;;
84966;SDS011;75275;51.348;12.358;2024-03-23T11:45:42;4.65;;;1.60;;
84966;SDS011;75275;51.348;12.358;2024-03-23T11:48:10;5.15;;;1.42;;
84966;SDS011;75275;51.348;12.358;2024-03-23T11:50:39;5.53;;;1.90;;
84966;SDS011;75275;51.348;12.358;2024-03-23T11:53:14;5.32;;;1.80;;
84966;SDS011;75275;51.348;12.358;2024-03-23T11:55:45;4.53;;;2.10;;
84966;SDS011;75275;51.348;12.358;2024-03-23T11:58:13;6.43;;;1.83;;
84966;SDS011;75275;51.348;12.358;2024-03-23T12:00:48;7.30;;;1.85;;
84966;SDS011;75275;51.348;12.358;2024-03-23T12:03:16;7.15;;;1.65;;
84966;SDS011;75275;51.348;12.358;2024-03-23T12:05:49;6.47;;;1.65;;
84966;SDS011;75275;51.348;12.358;2024-03-23T12:08:18;3.95;;;1.40;;
84966;SDS011;75275;51.348;12.358;2024-03-23T12:10:47;5.93;;;1.45;;
84966;SDS011;75275;51.348;12.358;2024-03-23T12:13:15;3.65;;;1.30;;
84966;SDS011;75275;51.348;12.358;2024-03-23T12:15:42;4.75;;;1.45;;
84966;SDS011;75275;51.348;12.358;2024-03-23T12:18:10;5.70;;;1.33;;
84966;SDS011;75275;51.348;12.358;2024-03-23T12:20:37;2.47;;;1.10;;
84966;SDS011;75275;51.348;12.358;2024-03-23T12:23:06;5.30;;;1.80;;
84966;SDS011;75275;51.348;12.358;2024-03-23T12:25:34;3.70;;;1.60;;
84966;SDS011;75275;51.348;12.358;2024-03-23T12:30:27;4.10;;;1.10;;
84966;SDS011;75275;51.348;12.358;2024-03-23T12:32:53;4.85;;;1.30;;
84966;SDS011;75275;51.348;12.358;2024-03-23T12:35:20;5.88;;;1.40;;
84966;SDS011;75275;51.348;12.358;2024-03-23T12:37:46;4.13;;;1.50;;
84966;SDS011;75275;51.348;12.358;2024-03-23T12:40:14;3.67;;;1.13;;
84966;SDS011;75275;51.348;12.358;2024-03-23T12:42:40;4.55;;;1.20;;
84966;SDS011;75275;51.348;12.358;2024-03-23T12:45:07;3.22;;;1.33;;
84966;SDS011;75275;51.348;12.358;2024-03-23T12:50:00;6.43;;;2.05;;
84966;SDS011;75275;51.348;12.358;2024-03-23T12:52:26;4.32;;;1.60;;
84966;SDS011;75275;51.348;12.358;2024-03-23T12:54:54;3.35;;;1.55;;
84966;SDS011;75275;51.348;12.358;2024-03-23T12:57:23;5.03;;;1.70;;
84966;SDS011;75275;51.348;12.358;2024-03-23T12:59:50;4.60;;;1.50;;
84966;SDS011;75275;51.348;12.358;2024-03-23T13:02:17;4.78;;;1.95;;
84966;SDS011;75275;51.348;12.358;2024-03-23T13:04:45;5.18;;;2.42;;
84966;SDS011;75275;51.348;12.358;2024-03-23T13:07:12;6.88;;;2.25;;
84966;SDS011;75275;51.348;12.358;2024-03-23T13:09:39;3.75;;;1.90;;
84966;SDS011;75275;51.348;12.358;2024-03-23T13:12:06;5.65;;;2.28;;
84966;SDS011;75275;51.348;12.358;2024-03-23T13:14:34;5.18;;;2.60;;
84966;SDS011;75275;51.348;12.358;2024-03-23T13:17:00;6.18;;;2.35;;
84966;SDS011;75275;51.348;12.358;2024-03-23T13:19:29;8.05;;;2.38;;
84966;SDS011;75275;51.348;12.358;2024-03-23T13:21:56;5.10;;;2.30;;
84966;SDS011;75275;51.348;12.358;2024-03-23T13:24:23;4.28;;;2.00;;
84966;SDS011;75275;51.348;12.358;2024-03-23T13:26:49;4.97;;;2.42;;
84966;SDS011;75275;51.348;12.358;2024-03-23T13:29:17;7.13;;;2.60;;
84966;SDS011;75275;51.348;12.358;2024-03-23T13:31:44;7.13;;;2.38;;
84966;SDS011;75275;51.348;12.358;2024-03-23T13:34:12;7.47;;;2.35;;
84966;SDS011;75275;51.348;12.358;2024-03-23T13:36:40;6.80;;;2.13;;
84966;SDS011;75275;51.348;12.358;2024-03-23T13:39:07;9.15;;;2.65;;
84966;SDS011;75275;51.348;12.358;2024-03-23T13:41:36;7.22;;;2.60;;
84966;SDS011;75275;51.348;12.358;2024-03-23T13:44:07;4.47;;;2.13;;
84966;SDS011;75275;51.348;12.358;2024-03-23T13:46:33;5.90;;;1.80;;
84966;SDS011;75275;51.348;12.358;2024-03-23T13:49:02;6.45;;;2.30;;
84966;SDS011;75275;51.348;12.358;2024-03-23T13:51:28;5.65;;;2.50;;
84966;SDS011;75275;51.348;12.358;2024-03-23T13:53:55;7.15;;;2.53;;
84966;SDS011;75275;51.348;12.358;2024-03-23T13:56:25;7.45;;;2.97;;
84966;SDS011;75275;51.348;12.358;2024-03-23T13:58:52;7.25;;;2.88;;
84966;SDS011;75275;51.348;12.358;2024-03-23T14:01:19;5.90;;;3.30;;
84966;SDS011;75275;51.348;12.358;2024-03-23T14:03:45;4.65;;;2.47;;
84966;SDS011;75275;51.348;12.358;2024-03-23T14:06:13;4.05;;;2.13;;
84966;SDS011;75275;51.348;12.358;2024-03-23T14:08:39;6.35;;;2.97;;
84966;SDS011;75275;51.348;12.358;2024-03-23T14:11:07;3.58;;;2.25;;
84966;SDS011;75275;51.348;12.358;2024-03-23T14:13:34;5.22;;;2.15;;
84966;SDS011;75275;51.348;12.358;2024-03-23T14:16:01;6.10;;;2.65;;
84966;SDS011;75275;51.348;12.358;2024-03-23T14:18:27;11.63;;;4.15;;
84966;SDS011;75275;51.348;12.358;2024-03-23T14:20:56;5.80;;;3.40;;
84966;SDS011;75275;51.348;12.358;2024-03-23T14:23:25;7.57;;;4.50;;
84966;SDS011;75275;51.348;12.358;2024-03-23T14:25:52;7.90;;;5.15;;
84966;SDS011;75275;51.348;12.358;2024-03-23T14:28:19;8.85;;;4.30;;
84966;SDS011;75275;51.348;12.358;2024-03-23T14:30:47;6.68;;;3.22;;
84966;SDS011;75275;51.348;12.358;2024-03-23T14:33:14;4.60;;;2.30;;
84966;SDS011;75275;51.348;12.358;2024-03-23T14:35:41;4.03;;;2.13;;
84966;SDS011;75275;51.348;12.358;2024-03-23T14:38:07;5.18;;;2.20;;
84966;SDS011;75275;51.348;12.358;2024-03-23T14:40:36;4.13;;;1.83;;
84966;SDS011;75275;51.348;12.358;2024-03-23T14:43:02;3.97;;;1.83;;
84966;SDS011;75275;51.348;12.358;2024-03-23T14:45:29;4.47;;;2.00;;
84966;SDS011;75275;51.348;12.358;2024-03-23T14:47:56;5.78;;;2.30;;
84966;SDS011;75275;51.348;12.358;2024-03-23T14:50:24;7.43;;;2.83;;
84966;SDS011;75275;51.348;12.358;2024-03-23T14:52:50;4.07;;;2.00;;
84966;SDS011;75275;51.348;12.358;2024-03-23T14:55:17;3.67;;;1.83;;
84966;SDS011;75275;51.348;12.358;2024-03-23T14:57:47;4.75;;;2.17;;
84966;SDS011;75275;51.348;12.358;2024-03-23T15:00:16;6.45;;;2.38;;
84966;SDS011;75275;51.348;12.358;2024-03-23T15:02:43;5.00;;;2.47;;
84966;SDS011;75275;51.348;12.358;2024-03-23T15:05:11;5.18;;;2.22;;
84966;SDS011;75275;51.348;12.358;2024-03-23T15:07:37;4.15;;;2.00;;
84966;SDS011;75275;51.348;12.358;2024-03-23T15:10:04;5.90;;;2.70;;
84966;SDS011;75275;51.348;12.358;2024-03-23T15:15:00;5.57;;;3.05;;
84966;SDS011;75275;51.348;12.358;2024-03-23T15:17:26;4.75;;;2.45;;
84966;SDS011;75275;51.348;12.358;2024-03-23T15:19:53;6.68;;;3.65;;
84966;SDS011;75275;51.348;12.358;2024-03-23T15:22:19;3.55;;;1.95;;
84966;SDS011;75275;51.348;12.358;2024-03-23T15:24:46;5.28;;;2.00;;
84966;SDS011;75275;51.348;12.358;2024-03-23T15:27:12;4.82;;;1.73;;
84966;SDS011;75275;51.348;12.358;2024-03-23T15:32:12;4.88;;;1.70;;
84966;SDS011;75275;51.348;12.358;2024-03-23T15:34:43;3.97;;;2.08;;
84966;SDS011;75275;51.348;12.358;2024-03-23T15:37:09;4.68;;;1.90;;
84966;SDS011;75275;51.348;12.358;2024-03-23T15:44:29;4.00;;;1.90;;
84966;SDS011;75275;51.348;12.358;2024-03-23T15:46:55;3.00;;;2.10;;
84966;SDS011;75275;51.348;12.358;2024-03-23T15:49:23;5.25;;;2.08;;
84966;SDS011;75275;51.348;12.358;2024-03-23T15:51:49;4.50;;;2.42;;
84966;SDS011;75275;51.348;12.358;2024-03-23T15:54:19;4.72;;;2.67;;
84966;SDS011;75275;51.348;12.358;2024-03-23T15:56:47;5.30;;;2.50;;
84966;SDS011;75275;51.348;12.358;2024-03-23T16:04:09;5.53;;;2.40;;
84966;SDS011;75275;51.348;12.358;2024-03-23T16:06:36;5.80;;;2.78;;